Time;durP1;ratioP1;P1;durP2;ratioP2;P2;SDS_P1;SDS_P2;PMS_P1;PMS_P2;Temp;Humidity;BMP_temperature;BMP_pressure;BME280_temperature;BME280_humidity;BME280_pressure;Samples;Min_cycle;Max_cycle;Signal;HPM_P1;HPM_P2
2022/03/20 00:00:26;;;;;;;;;;;1.90;81.00;;;;;;5051561;28;19916;-71
2022/03/20 00:02:53;;;;;;;;;;;1.80;81.60;;;;;;5049862;28;19932;-73
2022/03/20 00:05:18;;;;;;;;;;;1.80;82.10;;;;;;5051442;28;19916;-72
2022/03/20 00:07:46;;;;;;;;;;;1.70;82.30;;;;;;5051565;28;20276;-71
2022/03/20 00:10:11;;;;;;;;;;;1.70;82.60;;;;;;5050034;28;19913;-72
2022/03/20 00:12:37;;;;;;;;;;;1.70;82.90;;;;;;5049899;28;19923;-71
2022/03/20 00:15:04;;;;;;;;;;;1.70;83.40;;;;;;5049769;28;19909;-73
2022/03/20 00:17:30;;;;;;;;;;;1.60;83.70;;;;;;5051437;28;20269;-73
2022/03/20 00:19:56;;;;;;;;;;;1.60;83.80;;;;;;5051196;28;19995;-73
2022/03/20 00:22:21;;;;;;;;;;;1.70;84.10;;;;;;5049922;28;19967;-73
2022/03/20 00:24:47;;;;;;;;;;;1.70;84.50;;;;;;5050273;28;19909;-72
2022/03/20 00:27:13;;;;;;;;;;;1.60;85.20;;;;;;5051250;28;19921;-73
2022/03/20 00:29:39;;;;;;;;;;;1.60;85.30;;;;;;5051225;28;19909;-73
2022/03/20 00:32:05;;;;;;;;;;;1.60;85.90;;;;;;5051119;28;19916;-73
2022/03/20 00:34:31;;;;;;;;;;;1.50;86.40;;;;;;5049962;28;20365;-73
2022/03/20 00:36:56;;;;;;;;;;;1.50;86.50;;;;;;5050858;28;19920;-73
2022/03/20 00:39:22;;;;;;;;;;;1.50;87.00;;;;;;5052806;28;19927;-73
2022/03/20 00:41:48;;;;;;;;;;;1.50;87.50;;;;;;5053519;28;19928;-73
2022/03/20 00:44:13;;;;;;;;;;;1.40;88.00;;;;;;5053388;28;19913;-74
2022/03/20 00:46:39;;;;;;;;;;;1.30;88.00;;;;;;5053250;28;19913;-73
2022/03/20 00:49:05;;;;;;;;;;;1.50;88.40;;;;;;5053516;28;19932;-73
2022/03/20 00:51:31;;;;;;;;;;;1.40;88.70;;;;;;5054722;28;20000;-73
2022/03/20 00:53:57;;;;;;;;;;;1.40;89.00;;;;;;5053265;28;20046;-72
2022/03/20 00:56:23;;;;;;;;;;;1.40;90.10;;;;;;5055055;28;20003;-72
2022/03/20 00:58:48;;;;;;;;;;;1.30;90.30;;;;;;5054762;28;19924;-73
2022/03/20 01:01:14;;;;;;;;;;;1.20;90.60;;;;;;5054184;28;19924;-73
2022/03/20 01:03:40;;;;;;;;;;;1.30;90.90;;;;;;5054683;28;19928;-74
2022/03/20 01:06:07;;;;;;;;;;;1.20;91.20;;;;;;5054193;28;20545;-73
2022/03/20 01:08:36;;;;;;;;;;;1.30;91.60;;;;;;5052982;28;19920;-73
2022/03/20 01:11:03;;;;;;;;;;;1.30;91.80;;;;;;5054173;28;19916;-73
2022/03/20 01:13:29;;;;;;;;;;;1.30;92.00;;;;;;5052902;28;19940;-73
2022/03/20 01:15:55;;;;;;;;;;;1.30;92.40;;;;;;5052895;28;20369;-73
2022/03/20 01:18:21;;;;;;;;;;;1.30;92.60;;;;;;5052840;28;20059;-73
2022/03/20 01:20:46;;;;;;;;;;;1.40;93.10;;;;;;5053864;28;20362;-72
2022/03/20 01:23:12;;;;;;;;;;;1.30;93.30;;;;;;5052652;28;19927;-71
2022/03/20 01:25:38;;;;;;;;;;;1.20;93.70;;;;;;5053931;28;19908;-73
2022/03/20 01:28:04;;;;;;;;;;;1.20;94.10;;;;;;5054115;28;19917;-73
2022/03/20 01:30:29;;;;;;;;;;;1.20;94.30;;;;;;5054414;28;20414;-72
2022/03/20 01:32:55;;;;;;;;;;;1.20;94.60;;;;;;5052444;28;20249;-73
2022/03/20 01:35:21;;;;;;;;;;;1.20;94.90;;;;;;5053771;28;19947;-72
2022/03/20 01:37:46;;;;;;;;;;;1.20;95.20;;;;;;5053650;28;19924;-74
2022/03/20 01:40:12;;;;;;;;;;;1.20;95.60;;;;;;5052315;28;19912;-72
2022/03/20 01:42:39;;;;;;;;;;;1.10;96.10;;;;;;5053879;28;19917;-71
2022/03/20 01:45:15;;;;;;;;;;;1.10;96.50;;;;;;5052285;28;20007;-72
2022/03/20 01:47:40;;;;;;;;;;;1.10;97.10;;;;;;5053642;28;19916;-71
2022/03/20 01:50:06;;;;;;;;;;;1.00;97.60;;;;;;5052370;28;19979;-74
2022/03/20 01:52:33;;;;;;;;;;;1.00;98.10;;;;;;5053454;28;20353;-72
2022/03/20 01:54:58;;;;;;;;;;;1.00;98.60;;;;;;5052050;28;19974;-73
2022/03/20 01:57:25;;;;;;;;;;;1.00;99.00;;;;;;5053506;28;19917;-73
2022/03/20 01:59:51;;;;;;;;;;;1.00;99.40;;;;;;5052013;28;19916;-73
2022/03/20 02:02:18;;;;;;;;;;;1.00;99.90;;;;;;5052852;28;19925;-73
2022/03/20 02:04:43;;;;;;;;;;;1.20;99.90;;;;;;5053209;28;19913;-73
2022/03/20 02:07:09;;;;;;;;;;;0.90;99.90;;;;;;5051636;28;19917;-72
2022/03/20 02:09:35;;;;;;;;;;;0.90;99.90;;;;;;5051708;28;19987;-71
2022/03/20 02:12:01;;;;;;;;;;;0.90;99.90;;;;;;5051642;28;19924;-72
2022/03/20 02:14:30;;;;;;;;;;;0.80;99.90;;;;;;5052457;28;20259;-72
2022/03/20 02:16:56;;;;;;;;;;;0.80;99.90;;;;;;5052874;28;19966;-73
2022/03/20 02:19:21;;;;;;;;;;;0.80;99.90;;;;;;5051498;28;19913;-73
2022/03/20 02:21:48;;;;;;;;;;;0.90;99.90;;;;;;5052662;28;19920;-72
2022/03/20 02:24:41;;;;;;;;;;;0.70;99.90;;;;;;5052637;28;19947;-71
2022/03/20 02:27:08;;;;;;;;;;;0.70;99.90;;;;;;5052560;28;19919;-71
2022/03/20 02:29:33;;;;;;;;;;;0.70;99.90;;;;;;5051691;28;20276;-71
2022/03/20 02:32:00;;;;;;;;;;;0.60;99.90;;;;;;5051382;28;19913;-71
2022/03/20 02:34:26;;;;;;;;;;;0.70;99.90;;;;;;5051120;28;19913;-72
2022/03/20 02:36:53;;;;;;;;;;;0.70;99.90;;;;;;5052498;28;20246;-72
2022/03/20 02:39:18;;;;;;;;;;;1.30;99.90;;;;;;5052459;28;19979;-72
2022/03/20 02:41:44;;;;;;;;;;;0.80;99.90;;;;;;5051312;28;20368;-72
2022/03/20 02:44:10;;;;;;;;;;;0.80;99.90;;;;;;5052332;28;20011;-72
2022/03/20 02:46:37;;;;;;;;;;;0.80;99.90;;;;;;5052166;28;19908;-72
2022/03/20 02:49:09;;;;;;;;;;;0.80;99.90;;;;;;5050904;28;19983;-72
2022/03/20 02:51:36;;;;;;;;;;;0.80;99.90;;;;;;5052153;28;20352;-72
2022/03/20 02:54:05;;;;;;;;;;;0.70;99.90;;;;;;5052143;28;20012;-72
2022/03/20 02:56:32;;;;;;;;;;;0.70;99.90;;;;;;5050805;28;19915;-73
2022/03/20 02:58:58;;;;;;;;;;;0.70;99.90;;;;;;5052145;28;19948;-72
2022/03/20 03:01:24;;;;;;;;;;;0.80;99.90;;;;;;5051552;28;20356;-72
2022/03/20 03:03:50;;;;;;;;;;;0.60;99.90;;;;;;5051885;28;20378;-71
2022/03/20 03:06:15;;;;;;;;;;;0.60;99.90;;;;;;5052103;28;19923;-72
2022/03/20 03:11:25;;;;;;;;;;;1.00;99.90;;;;;;5052629;28;19924;-72
2022/03/20 03:13:50;;;;;;;;;;;0.70;99.90;;;;;;5050588;28;19912;-73
2022/03/20 03:16:16;;;;;;;;;;;0.70;99.90;;;;;;5051965;28;20351;-72
2022/03/20 03:18:46;;;;;;;;;;;0.70;99.90;;;;;;5050654;28;20404;-72
2022/03/20 03:21:14;;;;;;;;;;;0.60;99.90;;;;;;5051679;28;19928;-73
2022/03/20 03:23:40;;;;;;;;;;;0.70;99.90;;;;;;5050645;28;20368;-73
2022/03/20 03:26:06;;;;;;;;;;;0.60;99.90;;;;;;5050291;28;20006;-72
2022/03/20 03:28:35;;;;;;;;;;;0.70;99.90;;;;;;5050509;28;19909;-72
2022/03/20 03:31:01;;;;;;;;;;;0.60;99.90;;;;;;5051528;28;20296;-71
2022/03/20 03:33:27;;;;;;;;;;;0.60;99.90;;;;;;5050368;28;20268;-72
2022/03/20 03:35:54;;;;;;;;;;;0.60;99.90;;;;;;5050146;28;19921;-72
2022/03/20 03:38:21;;;;;;;;;;;0.50;99.90;;;;;;5050342;28;19909;-72
2022/03/20 03:40:47;;;;;;;;;;;0.60;99.90;;;;;;5049980;28;19935;-73
2022/03/20 03:43:15;;;;;;;;;;;0.50;99.90;;;;;;5052046;28;20303;-72
2022/03/20 03:45:41;;;;;;;;;;;0.50;99.90;;;;;;5051418;28;19979;-73
2022/03/20 03:48:07;;;;;;;;;;;0.50;99.90;;;;;;5050215;28;19919;-72
2022/03/20 03:50:33;;;;;;;;;;;0.50;99.90;;;;;;5049965;28;19932;-71
2022/03/20 03:52:59;;;;;;;;;;;1.40;99.90;;;;;;5051644;28;19908;-72
2022/03/20 03:55:24;;;;;;;;;;;0.60;99.90;;;;;;5051240;28;20300;-72
2022/03/20 03:57:51;;;;;;;;;;;0.60;99.90;;;;;;5051594;28;19909;-72
2022/03/20 04:00:17;;;;;;;;;;;0.60;99.90;;;;;;5051168;28;19921;-72
2022/03/20 04:02:43;;;;;;;;;;;0.70;99.90;;;;;;5051392;28;19977;-72
2022/03/20 04:05:09;;;;;;;;;;;0.60;99.90;;;;;;5051137;28;20396;-72
2022/03/20 04:07:35;;;;;;;;;;;0.60;99.90;;;;;;5051390;28;19913;-72
2022/03/20 04:10:05;;;;;;;;;;;0.50;99.90;;;;;;5051173;28;20301;-73
2022/03/20 04:12:31;;;;;;;;;;;0.50;99.90;;;;;;5049839;28;20012;-72
2022/03/20 04:15:02;;;;;;;;;;;0.60;99.90;;;;;;5055141;28;20074;-71
2022/03/20 04:17:30;;;;;;;;;;;0.50;99.90;;;;;;5055293;28;19917;-72
2022/03/20 04:19:59;;;;;;;;;;;0.50;99.90;;;;;;5055093;28;20420;-71
2022/03/20 04:22:25;;;;;;;;;;;0.50;99.90;;;;;;5053751;28;19921;-72
2022/03/20 04:24:51;;;;;;;;;;;0.50;99.90;;;;;;5054988;28;20281;-71
2022/03/20 04:27:17;;;;;;;;;;;0.60;99.90;;;;;;5055019;28;19983;-72
2022/03/20 04:29:43;;;;;;;;;;;0.60;99.90;;;;;;5053657;28;19916;-72
2022/03/20 04:32:09;;;;;;;;;;;0.60;99.90;;;;;;5053422;28;20368;-72
2022/03/20 04:34:35;;;;;;;;;;;0.60;99.90;;;;;;5055263;28;19967;-71
2022/03/20 04:37:06;;;;;;;;;;;0.70;99.90;;;;;;5053300;28;19913;-72
2022/03/20 04:39:32;;;;;;;;;;;0.60;99.90;;;;;;5053417;28;19912;-72
2022/03/20 04:41:57;;;;;;;;;;;0.60;99.90;;;;;;5054461;28;19964;-73
2022/03/20 04:44:23;;;;;;;;;;;0.60;99.90;;;;;;5055055;28;19964;-72
2022/03/20 04:46:49;;;;;;;;;;;0.60;99.90;;;;;;5054484;28;19963;-74
2022/03/20 05:00:11;;;;;;;;;;;0.60;99.90;;;;;;5054886;28;19920;-72
2022/03/20 05:02:36;;;;;;;;;;;0.70;99.90;;;;;;5054290;28;19920;-72
2022/03/20 05:05:02;;;;;;;;;;;0.70;99.90;;;;;;5054301;28;19956;-73
2022/03/20 05:07:28;;;;;;;;;;;0.80;99.90;;;;;;5054261;28;19920;-71
2022/03/20 05:15:39;;;;;;;;;;;0.90;99.90;;;;;;5041830;28;19913;-72
2022/03/20 05:18:09;;;;;;;;;;;1.20;99.90;;;;;;5054455;28;20336;-72
2022/03/20 05:20:35;;;;;;;;;;;1.30;99.90;;;;;;5052859;28;19917;-72
2022/03/20 05:23:01;;;;;;;;;;;1.50;99.90;;;;;;5052791;28;19913;-72
2022/03/20 05:25:30;;;;;;;;;;;1.60;99.90;;;;;;5052695;28;20012;-72
2022/03/20 05:27:56;;;;;;;;;;;1.70;99.90;;;;;;5054005;28;19912;-72
2022/03/20 05:30:21;;;;;;;;;;;1.70;99.90;;;;;;5053899;28;20011;-72
2022/03/20 05:32:48;;;;;;;;;;;1.80;99.90;;;;;;5054003;28;19912;-72
2022/03/20 05:35:13;;;;;;;;;;;1.90;99.90;;;;;;5052441;28;19917;-72
2022/03/20 05:37:39;;;;;;;;;;;2.00;99.90;;;;;;5053802;28;20020;-72
2022/03/20 05:40:05;;;;;;;;;;;2.10;99.90;;;;;;5052334;28;19920;-71
2022/03/20 05:42:30;;;;;;;;;;;2.20;99.90;;;;;;5053487;28;20011;-72
2022/03/20 05:44:56;;;;;;;;;;;2.30;99.90;;;;;;5052244;28;19919;-71
2022/03/20 05:47:22;;;;;;;;;;;2.40;99.80;;;;;;5053607;28;19966;-72
2022/03/20 05:49:48;;;;;;;;;;;2.40;99.40;;;;;;5052177;28;20432;-73
2022/03/20 05:52:15;;;;;;;;;;;2.60;99.70;;;;;;5053645;28;19954;-74
2022/03/20 05:54:40;;;;;;;;;;;2.60;99.40;;;;;;5052399;28;19956;-74
2022/03/20 05:59:53;;;;;;;;;;;2.80;98.50;;;;;;5053523;28;19927;-71
2022/03/20 06:02:20;;;;;;;;;;;2.80;98.40;;;;;;5051579;28;19924;-72
2022/03/20 06:04:45;;;;;;;;;;;2.90;98.20;;;;;;5051889;28;19917;-73
2022/03/20 06:07:11;;;;;;;;;;;3.00;97.80;;;;;;5051588;28;19917;-72
2022/03/20 06:09:37;;;;;;;;;;;3.00;98.10;;;;;;5053008;28;20349;-72
2022/03/20 06:12:03;;;;;;;;;;;3.00;97.80;;;;;;5053031;28;20372;-72
2022/03/20 06:14:28;;;;;;;;;;;3.10;98.00;;;;;;5051635;28;19933;-72
2022/03/20 06:16:54;;;;;;;;;;;3.30;98.10;;;;;;5051431;28;20360;-72
2022/03/20 06:19:20;;;;;;;;;;;3.40;97.80;;;;;;5052910;28;20284;-72
2022/03/20 06:21:46;;;;;;;;;;;3.50;97.60;;;;;;5052680;28;19925;-72
2022/03/20 06:24:12;;;;;;;;;;;3.50;97.70;;;;;;5052885;28;20417;-72
2022/03/20 06:26:38;;;;;;;;;;;3.50;97.80;;;;;;5051365;28;20043;-72
2022/03/20 06:29:07;;;;;;;;;;;3.60;97.80;;;;;;5051452;28;19913;-71
2022/03/20 06:31:32;;;;;;;;;;;3.70;98.00;;;;;;5052676;28;19908;-73
2022/03/20 06:33:59;;;;;;;;;;;3.90;97.90;;;;;;5052672;28;20297;-71
2022/03/20 06:36:27;;;;;;;;;;;4.00;97.80;;;;;;5052134;28;20010;-72
2022/03/20 06:38:52;;;;;;;;;;;4.10;97.90;;;;;;5052551;28;19917;-72
2022/03/20 06:41:18;;;;;;;;;;;4.20;98.00;;;;;;5052497;28;20428;-73
2022/03/20 06:43:44;;;;;;;;;;;4.40;97.80;;;;;;5051370;28;19916;-72
2022/03/20 06:46:09;;;;;;;;;;;4.60;97.80;;;;;;5052464;28;20257;-72
2022/03/20 06:48:35;;;;;;;;;;;4.70;97.80;;;;;;5050892;28;19938;-73
2022/03/20 06:51:00;;;;;;;;;;;4.80;97.40;;;;;;5051188;28;19913;-73
2022/03/20 06:53:26;;;;;;;;;;;4.80;97.50;;;;;;5051163;28;19912;-72
2022/03/20 06:55:52;;;;;;;;;;;4.80;97.70;;;;;;5052360;28;19924;-73
2022/03/20 06:58:20;;;;;;;;;;;5.10;97.70;;;;;;5052622;28;20633;-74
2022/03/20 07:00:46;;;;;;;;;;;5.40;97.50;;;;;;5052157;28;19964;-74
2022/03/20 07:03:11;;;;;;;;;;;5.70;96.90;;;;;;5050698;28;19960;-73
2022/03/20 07:05:37;;;;;;;;;;;5.90;96.30;;;;;;5050866;28;19912;-73
2022/03/20 07:08:04;;;;;;;;;;;5.90;96.10;;;;;;5052311;28;19923;-73
2022/03/20 07:10:30;;;;;;;;;;;5.90;96.10;;;;;;5052488;28;20289;-73
2022/03/20 07:15:40;;;;;;;;;;;6.30;95.60;;;;;;5052344;28;19924;-73
2022/03/20 07:18:06;;;;;;;;;;;6.40;94.70;;;;;;5050291;28;19919;-73
2022/03/20 07:20:32;;;;;;;;;;;6.60;94.50;;;;;;5050450;28;20349;-73
2022/03/20 07:23:00;;;;;;;;;;;6.60;94.00;;;;;;5050298;28;20361;-73
2022/03/20 07:30:56;;;;;;;;;;;6.80;93.60;;;;;;5051642;28;19963;-73
2022/03/20 07:33:25;;;;;;;;;;;6.80;93.40;;;;;;5051653;28;19912;-74
2022/03/20 07:35:51;;;;;;;;;;;6.90;93.20;;;;;;5051574;28;20277;-74
2022/03/20 07:38:16;;;;;;;;;;;7.00;93.10;;;;;;5051351;28;20007;-73
2022/03/20 07:40:42;;;;;;;;;;;7.00;93.00;;;;;;5051371;28;19991;-74
2022/03/20 07:43:08;;;;;;;;;;;7.00;93.10;;;;;;5051699;28;20004;-74
2022/03/20 07:45:34;;;;;;;;;;;7.00;93.20;;;;;;5051771;28;19921;-73
2022/03/20 07:48:00;;;;;;;;;;;7.10;93.00;;;;;;5049424;28;19924;-73
2022/03/20 07:50:26;;;;;;;;;;;7.10;93.10;;;;;;5051414;28;20365;-74
2022/03/20 07:52:51;;;;;;;;;;;7.10;93.10;;;;;;5051583;28;19962;-75
2022/03/20 07:55:17;;;;;;;;;;;7.30;93.00;;;;;;5051380;28;19917;-73
2022/03/20 07:57:43;;;;;;;;;;;7.50;93.20;;;;;;5051547;28;20269;-72
2022/03/20 08:00:09;;;;;;;;;;;7.80;92.80;;;;;;5049969;28;19917;-73
2022/03/20 08:02:34;;;;;;;;;;;7.90;92.20;;;;;;5051231;28;19955;-73
2022/03/20 08:05:00;;;;;;;;;;;7.90;92.10;;;;;;5051266;28;19952;-74
2022/03/20 08:07:26;;;;;;;;;;;7.90;92.10;;;;;;5050039;28;19919;-73
2022/03/20 08:09:52;;;;;;;;;;;7.90;92.10;;;;;;5050319;28;19995;-75
2022/03/20 08:12:17;;;;;;;;;;;8.00;92.00;;;;;;5051479;28;19913;-74
2022/03/20 08:14:44;;;;;;;;;;;8.20;92.10;;;;;;5051319;28;19921;-74
2022/03/20 08:17:10;;;;;;;;;;;8.40;91.80;;;;;;5051361;28;19913;-74
2022/03/20 08:19:36;;;;;;;;;;;8.60;91.30;;;;;;5049872;28;19996;-73
2022/03/20 08:22:05;;;;;;;;;;;8.70;90.90;;;;;;5051411;28;19917;-72
2022/03/20 08:24:30;;;;;;;;;;;8.70;91.00;;;;;;5051132;28;19920;-72
2022/03/20 08:26:57;;;;;;;;;;;8.80;90.80;;;;;;5051011;28;19913;-72
2022/03/20 08:29:23;;;;;;;;;;;9.00;90.40;;;;;;5051210;28;19913;-73
2022/03/20 08:31:48;;;;;;;;;;;9.00;90.00;;;;;;5051128;28;19920;-73
2022/03/20 08:34:15;;;;;;;;;;;9.10;90.10;;;;;;5050885;28;19924;-73
2022/03/20 08:36:41;;;;;;;;;;;9.30;89.40;;;;;;5049751;28;19909;-73
2022/03/20 08:39:07;;;;;;;;;;;9.50;89.10;;;;;;5049420;28;19924;-73
2022/03/20 08:41:33;;;;;;;;;;;9.60;87.50;;;;;;5050770;28;19913;-73
2022/03/20 08:43:58;;;;;;;;;;;10.00;87.10;;;;;;5050748;28;19913;-74
2022/03/20 08:46:24;;;;;;;;;;;10.20;86.30;;;;;;5050706;28;19909;-75
2022/03/20 08:48:50;;;;;;;;;;;10.50;84.60;;;;;;5051109;28;20454;-74
2022/03/20 08:51:15;;;;;;;;;;;10.60;83.80;;;;;;5050870;28;19924;-75
2022/03/20 08:53:41;;;;;;;;;;;10.50;82.70;;;;;;5051183;28;20280;-75
2022/03/20 08:56:06;;;;;;;;;;;10.50;82.50;;;;;;5050603;28;19917;-73
2022/03/20 08:58:32;;;;;;;;;;;10.60;81.60;;;;;;5051227;28;19916;-74
2022/03/20 09:00:58;;;;;;;;;;;10.60;80.30;;;;;;5054140;28;19917;-74
2022/03/20 09:03:24;;;;;;;;;;;10.70;80.40;;;;;;5054422;28;19924;-73
2022/03/20 09:05:50;;;;;;;;;;;10.80;80.10;;;;;;5053967;28;19995;-73
2022/03/20 09:08:16;;;;;;;;;;;11.30;78.40;;;;;;5052961;28;20316;-74
2022/03/20 09:10:41;;;;;;;;;;;11.50;76.30;;;;;;5054122;28;19913;-74
2022/03/20 09:13:07;;;;;;;;;;;11.60;75.80;;;;;;5054360;28;19924;-73
2022/03/20 09:15:32;;;;;;;;;;;12.00;76.00;;;;;;5054020;28;20234;-73
2022/03/20 09:20:43;;;;;;;;;;;12.30;73.80;;;;;;5054329;28;20031;-75
2022/03/20 09:23:09;;;;;;;;;;;12.40;72.70;;;;;;5054363;28;19960;-74
2022/03/20 09:25:34;;;;;;;;;;;12.40;71.40;;;;;;5053779;28;19963;-73
2022/03/20 09:28:01;;;;;;;;;;;12.40;71.50;;;;;;5052420;28;19917;-74
2022/03/20 09:30:26;;;;;;;;;;;12.50;70.50;;;;;;5053681;28;20365;-73
2022/03/20 09:32:52;;;;;;;;;;;12.50;70.30;;;;;;5052336;28;19912;-73
2022/03/20 09:35:18;;;;;;;;;;;12.60;69.70;;;;;;5052530;28;19996;-73
2022/03/20 09:37:44;;;;;;;;;;;12.60;69.50;;;;;;5052106;28;19916;-74
2022/03/20 09:40:10;;;;;;;;;;;12.40;69.60;;;;;;5053787;28;19996;-74
2022/03/20 09:42:37;;;;;;;;;;;12.40;69.00;;;;;;5052367;28;19917;-74
2022/03/20 09:45:03;;;;;;;;;;;12.50;69.30;;;;;;5052417;28;20015;-74
2022/03/20 09:47:29;;;;;;;;;;;12.50;68.70;;;;;;5052519;28;19913;-74
2022/03/20 09:49:56;;;;;;;;;;;12.50;68.80;;;;;;5052354;28;20320;-73
2022/03/20 09:52:23;;;;;;;;;;;12.60;68.20;;;;;;5053714;28;20002;-73
2022/03/20 09:54:50;;;;;;;;;;;12.60;68.10;;;;;;5053565;28;20017;-74
2022/03/20 09:57:15;;;;;;;;;;;12.70;67.60;;;;;;5053681;28;20054;-74
2022/03/20 09:59:41;;;;;;;;;;;12.70;67.40;;;;;;5052145;28;20003;-74
2022/03/20 10:02:07;;;;;;;;;;;12.60;67.10;;;;;;5052993;28;19932;-73
2022/03/20 10:04:34;;;;;;;;;;;12.70;67.10;;;;;;5053112;28;19913;-74
2022/03/20 10:07:00;;;;;;;;;;;12.70;68.20;;;;;;5052826;28;19976;-73
2022/03/20 10:09:26;;;;;;;;;;;12.60;66.30;;;;;;5051604;28;19924;-73
2022/03/20 10:11:54;;;;;;;;;;;12.60;66.70;;;;;;5050537;28;19956;-72
2022/03/20 10:14:21;;;;;;;;;;;12.60;66.70;;;;;;5052030;28;19920;-73
2022/03/20 10:17:16;;;;;;;;;;;12.80;66.20;;;;;;5051593;28;19921;-74
2022/03/20 10:19:42;;;;;;;;;;;12.90;66.20;;;;;;5051431;28;19920;-73
2022/03/20 10:22:08;;;;;;;;;;;13.20;66.00;;;;;;5052723;28;19917;-73
2022/03/20 10:24:38;;;;;;;;;;;13.30;64.90;;;;;;5052833;28;19925;-75
2022/03/20 10:27:04;;;;;;;;;;;13.30;65.10;;;;;;5051242;28;19913;-73
2022/03/20 10:29:31;;;;;;;;;;;13.50;64.90;;;;;;5051350;28;19919;-74
2022/03/20 10:31:59;;;;;;;;;;;13.60;64.30;;;;;;5052540;28;19916;-75
2022/03/20 10:34:25;;;;;;;;;;;13.80;63.20;;;;;;5051273;28;19944;-74
2022/03/20 10:36:51;;;;;;;;;;;13.80;62.70;;;;;;5051266;28;20399;-73
2022/03/20 10:39:19;;;;;;;;;;;13.80;62.50;;;;;;5052834;28;19917;-74
2022/03/20 10:41:46;;;;;;;;;;;13.70;62.80;;;;;;5052380;28;19923;-74
2022/03/20 10:44:13;;;;;;;;;;;13.80;62.50;;;;;;5051176;28;19948;-74
2022/03/20 10:46:39;;;;;;;;;;;13.80;61.70;;;;;;5051118;28;19909;-73
2022/03/20 10:49:06;;;;;;;;;;;14.30;61.10;;;;;;5052524;28;19919;-73
2022/03/20 10:51:37;;;;;;;;;;;14.20;61.10;;;;;;5051087;28;20270;-73
2022/03/20 10:54:04;;;;;;;;;;;14.30;61.50;;;;;;5051470;28;19920;-73
2022/03/20 10:56:29;;;;;;;;;;;14.80;60.60;;;;;;5050639;28;19913;-74
2022/03/20 10:58:55;;;;;;;;;;;15.10;59.50;;;;;;5050982;28;19913;-72
2022/03/20 11:01:32;;;;;;;;;;;15.20;58.90;;;;;;5051777;28;19996;-73
2022/03/20 11:03:59;;;;;;;;;;;15.40;58.30;;;;;;5051988;28;20032;-74
2022/03/20 11:06:25;;;;;;;;;;;15.50;58.20;;;;;;5052281;28;19984;-74
2022/03/20 11:08:51;;;;;;;;;;;14.90;58.10;;;;;;5052225;28;19913;-73
2022/03/20 11:11:17;;;;;;;;;;;15.40;57.90;;;;;;5050541;28;20446;-74
2022/03/20 11:13:46;;;;;;;;;;;15.40;58.20;;;;;;5052359;28;19912;-74
2022/03/20 11:16:12;;;;;;;;;;;15.50;57.80;;;;;;5050531;28;19925;-74
2022/03/20 11:18:39;;;;;;;;;;;15.60;57.90;;;;;;5052220;28;19917;-74
2022/03/20 11:21:05;;;;;;;;;;;15.60;57.20;;;;;;5051711;28;19962;-73
2022/03/20 11:23:33;;;;;;;;;;;15.50;57.10;;;;;;5052022;28;19913;-73
2022/03/20 11:25:59;;;;;;;;;;;15.30;57.50;;;;;;5051707;28;19917;-75
2022/03/20 11:28:26;;;;;;;;;;;15.30;57.60;;;;;;5052019;28;20004;-74
2022/03/20 11:30:53;;;;;;;;;;;15.40;57.20;;;;;;5050450;28;19912;-74
2022/03/20 11:33:22;;;;;;;;;;;15.50;56.50;;;;;;5051545;28;20248;-75
2022/03/20 11:35:48;;;;;;;;;;;15.40;56.70;;;;;;5051813;28;19941;-74
2022/03/20 11:38:22;;;;;;;;;;;15.20;56.70;;;;;;5052012;28;19917;-74
2022/03/20 11:41:07;;;;;;;;;;;15.50;56.50;;;;;;5050176;28;20288;-75
2022/03/20 11:43:37;;;;;;;;;;;15.70;56.50;;;;;;5051901;28;19913;-74
2022/03/20 11:46:32;;;;;;;;;;;15.80;56.50;;;;;;5050025;28;19936;-74
2022/03/20 11:49:12;;;;;;;;;;;15.80;56.00;;;;;;5051558;28;19948;-74
2022/03/20 11:51:51;;;;;;;;;;;15.60;56.40;;;;;;5051445;28;19971;-74
2022/03/20 11:54:17;;;;;;;;;;;15.10;56.70;;;;;;5050348;28;19917;-75
2022/03/20 11:56:43;;;;;;;;;;;14.50;57.60;;;;;;5051354;28;19908;-74
2022/03/20 11:59:27;;;;;;;;;;;14.10;57.40;;;;;;5051369;28;20436;-74
2022/03/20 12:02:01;;;;;;;;;;;13.50;58.20;;;;;;5049305;28;20020;-73
2022/03/20 12:04:33;;;;;;;;;;;12.90;58.70;;;;;;5050343;28;19948;-73
2022/03/20 12:07:13;;;;;;;;;;;12.50;59.10;;;;;;5051201;28;19920;-73
2022/03/20 12:09:39;;;;;;;;;;;12.10;59.70;;;;;;5051388;28;20001;-74
2022/03/20 12:12:17;;;;;;;;;;;11.70;61.10;;;;;;5051367;28;20004;-73
2022/03/20 12:14:53;;;;;;;;;;;11.50;60.70;;;;;;5049938;28;19936;-73
2022/03/20 12:17:19;;;;;;;;;;;11.40;61.50;;;;;;5051085;28;19967;-74
2022/03/20 12:19:55;;;;;;;;;;;11.40;61.30;;;;;;5050079;28;19952;-73
2022/03/20 12:22:21;;;;;;;;;;;11.40;61.00;;;;;;5049853;28;20226;-73
2022/03/20 12:24:54;;;;;;;;;;;11.30;61.20;;;;;;5050180;28;19917;-75
2022/03/20 12:27:22;;;;;;;;;;;11.10;60.90;;;;;;5050151;28;20390;-73
2022/03/20 12:30:21;;;;;;;;;;;10.70;61.40;;;;;;5051264;28;19966;-73
2022/03/20 12:32:46;;;;;;;;;;;10.80;61.40;;;;;;5051294;28;19939;-74
2022/03/20 12:35:15;;;;;;;;;;;10.80;61.80;;;;;;5052802;28;20353;-74
2022/03/20 12:37:42;;;;;;;;;;;10.80;61.70;;;;;;5055496;28;19919;-74
2022/03/20 12:40:11;;;;;;;;;;;10.80;61.90;;;;;;5053715;28;19920;-73
2022/03/20 12:42:38;;;;;;;;;;;10.70;61.30;;;;;;5054788;28;19917;-74
2022/03/20 12:45:05;;;;;;;;;;;10.60;61.60;;;;;;5054781;28;19924;-74
2022/03/20 12:47:31;;;;;;;;;;;10.50;61.90;;;;;;5054838;28;19912;-73
2022/03/20 12:49:56;;;;;;;;;;;10.50;61.90;;;;;;5053301;28;19912;-73
2022/03/20 12:52:23;;;;;;;;;;;10.50;61.90;;;;;;5053704;28;20338;-74
2022/03/20 12:54:53;;;;;;;;;;;10.50;62.20;;;;;;5054828;28;19936;-75
2022/03/20 12:57:18;;;;;;;;;;;10.60;62.30;;;;;;5054961;28;19936;-75
2022/03/20 12:59:44;;;;;;;;;;;10.70;62.10;;;;;;5053287;28;19916;-73
2022/03/20 13:02:10;;;;;;;;;;;10.90;61.30;;;;;;5054445;28;19920;-74
2022/03/20 13:04:37;;;;;;;;;;;11.00;60.90;;;;;;5054541;28;19966;-73
2022/03/20 13:07:24;;;;;;;;;;;11.10;60.90;;;;;;5054770;28;19967;-73
2022/03/20 13:09:57;;;;;;;;;;;11.20;60.90;;;;;;5053316;28;20368;-73
2022/03/20 13:12:22;;;;;;;;;;;11.30;60.40;;;;;;5054243;28;19913;-74
2022/03/20 13:14:49;;;;;;;;;;;10.10;59.60;;;;;;5052822;28;20016;-73
2022/03/20 13:17:23;;;;;;;;;;;11.40;60.60;;;;;;5054345;28;20011;-75
2022/03/20 13:19:48;;;;;;;;;;;11.50;59.80;;;;;;5052587;28;20352;-74
2022/03/20 13:22:14;;;;;;;;;;;11.40;59.70;;;;;;5054080;28;19979;-75
2022/03/20 13:24:42;;;;;;;;;;;11.40;59.50;;;;;;5053953;28;19936;-73
2022/03/20 13:27:09;;;;;;;;;;;11.30;59.60;;;;;;5052525;28;19920;-73
2022/03/20 13:29:35;;;;;;;;;;;11.20;59.60;;;;;;5052816;28;19963;-75
2022/03/20 13:32:08;;;;;;;;;;;11.20;59.50;;;;;;5054095;28;19913;-74
2022/03/20 13:34:41;;;;;;;;;;;11.10;59.70;;;;;;5052327;28;19920;-73
2022/03/20 13:37:08;;;;;;;;;;;11.00;59.40;;;;;;5052503;28;20075;-75
2022/03/20 13:39:34;;;;;;;;;;;10.90;59.30;;;;;;5052608;28;19913;-74
2022/03/20 13:41:59;;;;;;;;;;;10.90;59.40;;;;;;5052798;28;19917;-74
2022/03/20 13:44:37;;;;;;;;;;;10.90;59.20;;;;;;5054391;28;19916;-75
2022/03/20 13:47:02;;;;;;;;;;;10.90;59.40;;;;;;5052499;28;19999;-73
2022/03/20 13:49:28;;;;;;;;;;;10.80;59.20;;;;;;5053857;28;19936;-75
2022/03/20 13:51:56;;;;;;;;;;;10.80;59.50;;;;;;5053654;28;19913;-74
2022/03/20 13:54:22;;;;;;;;;;;10.80;59.70;;;;;;5053322;28;20250;-73
2022/03/20 13:57:10;;;;;;;;;;;10.70;59.60;;;;;;5053966;28;20378;-72
2022/03/20 13:59:52;;;;;;;;;;;10.70;59.50;;;;;;5051780;28;19924;-73
2022/03/20 14:02:20;;;;;;;;;;;10.60;59.60;;;;;;5053244;28;19929;-73
2022/03/20 14:04:51;;;;;;;;;;;10.50;59.80;;;;;;5053658;28;19913;-74
2022/03/20 14:07:21;;;;;;;;;;;10.60;59.60;;;;;;5053386;28;20352;-74
2022/03/20 14:09:47;;;;;;;;;;;10.60;59.30;;;;;;5051798;28;19913;-73
2022/03/20 14:12:32;;;;;;;;;;;10.60;59.10;;;;;;5053299;28;19999;-74
2022/03/20 14:14:58;;;;;;;;;;;10.50;58.70;;;;;;5051833;28;19941;-74
2022/03/20 14:17:43;;;;;;;;;;;10.30;58.50;;;;;;5053321;28;19913;-73
2022/03/20 14:20:10;;;;;;;;;;;10.40;58.20;;;;;;5051849;28;19913;-74
2022/03/20 14:22:46;;;;;;;;;;;10.30;58.40;;;;;;5052239;28;19917;-74
2022/03/20 14:25:32;;;;;;;;;;;10.20;58.60;;;;;;5052234;28;19913;-72
2022/03/20 14:27:58;;;;;;;;;;;10.20;58.80;;;;;;5051363;28;19916;-72
2022/03/20 14:41:25;;;;;;;;;;;10.10;59.00;;;;;;5052850;28;20399;-75
2022/03/20 14:44:13;;;;;;;;;;;10.10;59.60;;;;;;5052372;28;19913;-74
2022/03/20 14:46:40;;;;;;;;;;;10.00;59.90;;;;;;5051049;28;19924;-74
2022/03/20 14:49:06;;;;;;;;;;;9.90;60.00;;;;;;5051210;28;19913;-73
2022/03/20 14:51:32;;;;;;;;;;;9.80;59.80;;;;;;5051100;28;19987;-74
2022/03/20 14:53:58;;;;;;;;;;;9.80;59.90;;;;;;5051316;28;19927;-74
2022/03/20 14:56:23;;;;;;;;;;;9.80;60.10;;;;;;5050742;28;19997;-73
2022/03/20 14:58:49;;;;;;;;;;;9.80;59.90;;;;;;5052843;28;19948;-75
2022/03/20 15:01:17;;;;;;;;;;;9.80;60.20;;;;;;5051021;28;19921;-73
2022/03/20 15:03:42;;;;;;;;;;;9.70;60.30;;;;;;5052526;28;20288;-73
2022/03/20 15:06:08;;;;;;;;;;;9.60;60.20;;;;;;5050528;28;19913;-72
2022/03/20 15:11:24;;;;;;;;;;;9.60;60.20;;;;;;5052301;28;19920;-73